sensor_id;sensor_type;location;lat;lon;timestamp;P1;durP1;ratioP1;P2;durP2;ratioP2
36391;SDS011;22639;42.690;23.356;2022-10-20T00:01:45;24.52;;;18.13;;
36391;SDS011;22639;42.690;23.356;2022-10-20T00:04:10;22.88;;;17.30;;
36391;SDS011;22639;42.690;23.356;2022-10-20T00:06:35;23.57;;;17.37;;
36391;SDS011;22639;42.690;23.356;2022-10-20T00:09:01;26.10;;;19.45;;
36391;SDS011;22639;42.690;23.356;2022-10-20T00:11:27;22.53;;;18.83;;
36391;SDS011;22639;42.690;23.356;2022-10-20T00:13:53;26.92;;;19.27;;
36391;SDS011;22639;42.690;23.356;2022-10-20T00:16:19;23.48;;;19.40;;
36391;SDS011;22639;42.690;23.356;2022-10-20T00:18:44;23.67;;;19.50;;
36391;SDS011;22639;42.690;23.356;2022-10-20T00:21:11;24.92;;;18.17;;
36391;SDS011;22639;42.690;23.356;2022-10-20T00:23:37;22.02;;;17.95;;
36391;SDS011;22639;42.690;23.356;2022-10-20T00:26:06;26.13;;;17.17;;
36391;SDS011;22639;42.690;23.356;2022-10-20T00:28:32;22.77;;;17.67;;
36391;SDS011;22639;42.690;23.356;2022-10-20T00:30:57;21.73;;;17.35;;
36391;SDS011;22639;42.690;23.356;2022-10-20T00:33:22;24.83;;;18.10;;
36391;SDS011;22639;42.690;23.356;2022-10-20T00:35:48;22.35;;;16.80;;
36391;SDS011;22639;42.690;23.356;2022-10-20T00:38:13;22.70;;;18.15;;
36391;SDS011;22639;42.690;23.356;2022-10-20T00:40:38;22.33;;;16.95;;
36391;SDS011;22639;42.690;23.356;2022-10-20T00:43:05;21.77;;;16.48;;
36391;SDS011;22639;42.690;23.356;2022-10-20T00:45:33;21.75;;;16.17;;
36391;SDS011;22639;42.690;23.356;2022-10-20T00:47:59;19.67;;;15.65;;
36391;SDS011;22639;42.690;23.356;2022-10-20T00:50:30;20.42;;;15.05;;
36391;SDS011;22639;42.690;23.356;2022-10-20T00:52:58;17.48;;;15.07;;
36391;SDS011;22639;42.690;23.356;2022-10-20T00:55:26;19.98;;;13.90;;
36391;SDS011;22639;42.690;23.356;2022-10-20T00:57:52;20.38;;;13.77;;
36391;SDS011;22639;42.690;23.356;2022-10-20T01:00:18;19.63;;;14.97;;
36391;SDS011;22639;42.690;23.356;2022-10-20T01:02:44;16.53;;;13.60;;
36391;SDS011;22639;42.690;23.356;2022-10-20T01:05:09;20.52;;;15.00;;
36391;SDS011;22639;42.690;23.356;2022-10-20T01:07:35;15.85;;;13.65;;
36391;SDS011;22639;42.690;23.356;2022-10-20T01:10:00;18.05;;;14.00;;
36391;SDS011;22639;42.690;23.356;2022-10-20T01:12:36;15.05;;;11.93;;
36391;SDS011;22639;42.690;23.356;2022-10-20T01:15:08;14.47;;;12.33;;
36391;SDS011;22639;42.690;23.356;2022-10-20T01:17:40;18.07;;;13.53;;
36391;SDS011;22639;42.690;23.356;2022-10-20T01:35:10;14.30;;;11.97;;
36391;SDS011;22639;42.690;23.356;2022-10-20T01:42:41;15.37;;;11.27;;
36391;SDS011;22639;42.690;23.356;2022-10-20T01:45:07;14.87;;;11.97;;
36391;SDS011;22639;42.690;23.356;2022-10-20T01:47:34;13.83;;;10.93;;
36391;SDS011;22639;42.690;23.356;2022-10-20T01:50:00;15.40;;;11.37;;
36391;SDS011;22639;42.690;23.356;2022-10-20T01:52:27;13.77;;;10.50;;
36391;SDS011;22639;42.690;23.356;2022-10-20T01:54:53;13.03;;;10.73;;
36391;SDS011;22639;42.690;23.356;2022-10-20T02:02:26;14.90;;;11.03;;
36391;SDS011;22639;42.690;23.356;2022-10-20T02:07:24;13.37;;;10.40;;
36391;SDS011;22639;42.690;23.356;2022-10-20T02:09:52;16.93;;;11.07;;
36391;SDS011;22639;42.690;23.356;2022-10-20T02:12:22;14.07;;;11.77;;
36391;SDS011;22639;42.690;23.356;2022-10-20T02:14:48;14.30;;;11.50;;
36391;SDS011;22639;42.690;23.356;2022-10-20T02:17:14;15.93;;;11.00;;
36391;SDS011;22639;42.690;23.356;2022-10-20T02:19:41;19.97;;;13.40;;
36391;SDS011;22639;42.690;23.356;2022-10-20T02:22:08;15.77;;;11.20;;
36391;SDS011;22639;42.690;23.356;2022-10-20T02:24:34;17.47;;;12.57;;
36391;SDS011;22639;42.690;23.356;2022-10-20T02:27:01;17.33;;;11.20;;
36391;SDS011;22639;42.690;23.356;2022-10-20T02:29:28;15.53;;;11.27;;
36391;SDS011;22639;42.690;23.356;2022-10-20T02:31:54;17.50;;;12.63;;
36391;SDS011;22639;42.690;23.356;2022-10-20T02:34:20;13.00;;;11.17;;
36391;SDS011;22639;42.690;23.356;2022-10-20T02:36:45;16.37;;;12.50;;
36391;SDS011;22639;42.690;23.356;2022-10-20T02:39:10;13.67;;;11.37;;
36391;SDS011;22639;42.690;23.356;2022-10-20T02:41:36;12.87;;;10.90;;
36391;SDS011;22639;42.690;23.356;2022-10-20T02:44:02;14.83;;;12.47;;
36391;SDS011;22639;42.690;23.356;2022-10-20T02:46:27;14.90;;;11.57;;
36391;SDS011;22639;42.690;23.356;2022-10-20T02:48:52;13.67;;;11.30;;
36391;SDS011;22639;42.690;23.356;2022-10-20T02:51:18;14.53;;;12.20;;
36391;SDS011;22639;42.690;23.356;2022-10-20T02:53:43;17.67;;;11.87;;
36391;SDS011;22639;42.690;23.356;2022-10-20T02:56:09;15.93;;;12.30;;
36391;SDS011;22639;42.690;23.356;2022-10-20T02:58:34;16.77;;;12.53;;
36391;SDS011;22639;42.690;23.356;2022-10-20T03:00:59;19.80;;;12.60;;
36391;SDS011;22639;42.690;23.356;2022-10-20T03:03:24;17.13;;;11.87;;
36391;SDS011;22639;42.690;23.356;2022-10-20T03:05:50;14.70;;;12.60;;
36391;SDS011;22639;42.690;23.356;2022-10-20T03:08:15;13.43;;;10.83;;
36391;SDS011;22639;42.690;23.356;2022-10-20T03:10:40;15.13;;;11.90;;
36391;SDS011;22639;42.690;23.356;2022-10-20T03:13:06;14.60;;;11.90;;
36391;SDS011;22639;42.690;23.356;2022-10-20T03:15:32;11.63;;;10.23;;
36391;SDS011;22639;42.690;23.356;2022-10-20T03:17:57;15.10;;;11.60;;
36391;SDS011;22639;42.690;23.356;2022-10-20T03:20:22;14.93;;;11.83;;
36391;SDS011;22639;42.690;23.356;2022-10-20T03:22:47;14.73;;;11.20;;
36391;SDS011;22639;42.690;23.356;2022-10-20T03:25:13;13.87;;;11.27;;
36391;SDS011;22639;42.690;23.356;2022-10-20T03:27:38;14.97;;;11.97;;
36391;SDS011;22639;42.690;23.356;2022-10-20T03:30:03;15.73;;;11.30;;
36391;SDS011;22639;42.690;23.356;2022-10-20T03:32:29;13.13;;;11.07;;
36391;SDS011;22639;42.690;23.356;2022-10-20T03:34:54;15.13;;;11.33;;
36391;SDS011;22639;42.690;23.356;2022-10-20T03:37:19;15.73;;;11.20;;
36391;SDS011;22639;42.690;23.356;2022-10-20T03:39:44;16.63;;;11.00;;
36391;SDS011;22639;42.690;23.356;2022-10-20T03:42:10;14.47;;;10.87;;
36391;SDS011;22639;42.690;23.356;2022-10-20T03:44:35;19.20;;;12.47;;
36391;SDS011;22639;42.690;23.356;2022-10-20T03:47:00;13.57;;;10.27;;
36391;SDS011;22639;42.690;23.356;2022-10-20T03:49:25;14.80;;;11.13;;
36391;SDS011;22639;42.690;23.356;2022-10-20T03:51:51;14.83;;;11.90;;
36391;SDS011;22639;42.690;23.356;2022-10-20T03:54:21;16.17;;;10.97;;
36391;SDS011;22639;42.690;23.356;2022-10-20T03:56:47;16.83;;;11.30;;
36391;SDS011;22639;42.690;23.356;2022-10-20T03:59:12;16.10;;;11.57;;
36391;SDS011;22639;42.690;23.356;2022-10-20T04:01:38;15.60;;;11.23;;
36391;SDS011;22639;42.690;23.356;2022-10-20T04:04:06;14.10;;;11.27;;
36391;SDS011;22639;42.690;23.356;2022-10-20T04:06:31;16.40;;;12.07;;
36391;SDS011;22639;42.690;23.356;2022-10-20T04:08:57;16.73;;;11.97;;
36391;SDS011;22639;42.690;23.356;2022-10-20T04:11:22;15.60;;;11.17;;
36391;SDS011;22639;42.690;23.356;2022-10-20T04:13:48;16.17;;;12.70;;
36391;SDS011;22639;42.690;23.356;2022-10-20T04:16:13;17.70;;;12.10;;
36391;SDS011;22639;42.690;23.356;2022-10-20T04:18:38;14.73;;;11.60;;
36391;SDS011;22639;42.690;23.356;2022-10-20T04:21:04;16.03;;;11.40;;
36391;SDS011;22639;42.690;23.356;2022-10-20T04:23:29;18.20;;;12.27;;
36391;SDS011;22639;42.690;23.356;2022-10-20T04:25:54;19.13;;;11.40;;
36391;SDS011;22639;42.690;23.356;2022-10-20T04:28:20;15.57;;;12.10;;
36391;SDS011;22639;42.690;23.356;2022-10-20T04:30:45;19.20;;;12.67;;
36391;SDS011;22639;42.690;23.356;2022-10-20T04:33:11;16.50;;;11.27;;
36391;SDS011;22639;42.690;23.356;2022-10-20T04:35:37;18.90;;;12.43;;
36391;SDS011;22639;42.690;23.356;2022-10-20T04:38:02;15.33;;;12.17;;
36391;SDS011;22639;42.690;23.356;2022-10-20T04:40:27;16.87;;;11.63;;
36391;SDS011;22639;42.690;23.356;2022-10-20T04:42:52;16.50;;;12.23;;
36391;SDS011;22639;42.690;23.356;2022-10-20T04:45:18;18.93;;;12.07;;
36391;SDS011;22639;42.690;23.356;2022-10-20T04:47:43;19.20;;;12.07;;
36391;SDS011;22639;42.690;23.356;2022-10-20T04:50:11;18.20;;;12.93;;
36391;SDS011;22639;42.690;23.356;2022-10-20T04:52:36;16.10;;;11.43;;
36391;SDS011;22639;42.690;23.356;2022-10-20T04:55:02;15.07;;;11.37;;
36391;SDS011;22639;42.690;23.356;2022-10-20T04:57:27;18.87;;;12.90;;
36391;SDS011;22639;42.690;23.356;2022-10-20T04:59:52;16.07;;;11.83;;
36391;SDS011;22639;42.690;23.356;2022-10-20T05:02:17;17.50;;;13.00;;
36391;SDS011;22639;42.690;23.356;2022-10-20T05:04:43;18.27;;;12.63;;
36391;SDS011;22639;42.690;23.356;2022-10-20T05:07:08;16.17;;;11.53;;
36391;SDS011;22639;42.690;23.356;2022-10-20T05:09:33;17.23;;;10.67;;
36391;SDS011;22639;42.690;23.356;2022-10-20T05:11:58;15.00;;;11.00;;
36391;SDS011;22639;42.690;23.356;2022-10-20T05:14:24;15.47;;;12.10;;
36391;SDS011;22639;42.690;23.356;2022-10-20T05:16:50;15.30;;;11.23;;
36391;SDS011;22639;42.690;23.356;2022-10-20T05:19:15;19.00;;;13.27;;
36391;SDS011;22639;42.690;23.356;2022-10-20T05:21:40;19.47;;;13.20;;
36391;SDS011;22639;42.690;23.356;2022-10-20T05:24:11;15.80;;;11.97;;
36391;SDS011;22639;42.690;23.356;2022-10-20T05:26:40;17.73;;;12.27;;
36391;SDS011;22639;42.690;23.356;2022-10-20T05:29:07;18.00;;;13.70;;
36391;SDS011;22639;42.690;23.356;2022-10-20T05:31:35;15.50;;;11.05;;
36391;SDS011;22639;42.690;23.356;2022-10-20T05:34:01;14.25;;;10.43;;
36391;SDS011;22639;42.690;23.356;2022-10-20T05:36:26;17.40;;;11.75;;
36391;SDS011;22639;42.690;23.356;2022-10-20T05:38:52;14.27;;;10.30;;
36391;SDS011;22639;42.690;23.356;2022-10-20T05:41:19;13.13;;;10.88;;
36391;SDS011;22639;42.690;23.356;2022-10-20T05:43:51;14.35;;;11.07;;
36391;SDS011;22639;42.690;23.356;2022-10-20T05:46:17;13.90;;;10.68;;
36391;SDS011;22639;42.690;23.356;2022-10-20T05:48:42;14.55;;;10.50;;
36391;SDS011;22639;42.690;23.356;2022-10-20T05:51:09;13.52;;;10.80;;
36391;SDS011;22639;42.690;23.356;2022-10-20T05:53:35;12.38;;;9.75;;
36391;SDS011;22639;42.690;23.356;2022-10-20T05:56:01;11.40;;;9.38;;
36391;SDS011;22639;42.690;23.356;2022-10-20T05:58:27;15.13;;;10.35;;
36391;SDS011;22639;42.690;23.356;2022-10-20T06:00:52;17.52;;;11.05;;
36391;SDS011;22639;42.690;23.356;2022-10-20T06:03:18;11.82;;;10.27;;
36391;SDS011;22639;42.690;23.356;2022-10-20T06:05:43;15.90;;;10.23;;
36391;SDS011;22639;42.690;23.356;2022-10-20T06:08:08;15.90;;;11.55;;
36391;SDS011;22639;42.690;23.356;2022-10-20T06:10:34;13.35;;;11.23;;
36391;SDS011;22639;42.690;23.356;2022-10-20T06:12:59;13.75;;;9.65;;
36391;SDS011;22639;42.690;23.356;2022-10-20T06:15:24;13.80;;;9.88;;
36391;SDS011;22639;42.690;23.356;2022-10-20T06:17:50;13.50;;;10.60;;
36391;SDS011;22639;42.690;23.356;2022-10-20T06:20:18;15.32;;;10.35;;
36391;SDS011;22639;42.690;23.356;2022-10-20T06:22:43;15.02;;;11.65;;
36391;SDS011;22639;42.690;23.356;2022-10-20T06:25:09;12.43;;;9.88;;
36391;SDS011;22639;42.690;23.356;2022-10-20T06:27:34;12.63;;;10.68;;
36391;SDS011;22639;42.690;23.356;2022-10-20T06:29:59;14.50;;;10.68;;
36391;SDS011;22639;42.690;23.356;2022-10-20T06:32:25;12.60;;;11.20;;
36391;SDS011;22639;42.690;23.356;2022-10-20T06:34:50;12.45;;;11.15;;
36391;SDS011;22639;42.690;23.356;2022-10-20T06:37:15;13.00;;;10.50;;
36391;SDS011;22639;42.690;23.356;2022-10-20T06:39:41;13.52;;;11.13;;
36391;SDS011;22639;42.690;23.356;2022-10-20T06:42:07;13.10;;;10.88;;
36391;SDS011;22639;42.690;23.356;2022-10-20T06:44:32;12.55;;;11.13;;
36391;SDS011;22639;42.690;23.356;2022-10-20T06:46:58;17.40;;;11.20;;
36391;SDS011;22639;42.690;23.356;2022-10-20T06:49:23;12.65;;;11.35;;
36391;SDS011;22639;42.690;23.356;2022-10-20T06:51:48;14.00;;;11.88;;
36391;SDS011;22639;42.690;23.356;2022-10-20T06:54:14;11.75;;;10.65;;
36391;SDS011;22639;42.690;23.356;2022-10-20T06:56:39;12.00;;;10.52;;
36391;SDS011;22639;42.690;23.356;2022-10-20T06:59:05;11.95;;;10.70;;
36391;SDS011;22639;42.690;23.356;2022-10-20T07:01:31;16.08;;;11.48;;
36391;SDS011;22639;42.690;23.356;2022-10-20T07:04:01;12.85;;;11.52;;
36391;SDS011;22639;42.690;23.356;2022-10-20T07:06:28;12.18;;;10.48;;
36391;SDS011;22639;42.690;23.356;2022-10-20T07:08:54;12.48;;;10.65;;
36391;SDS011;22639;42.690;23.356;2022-10-20T07:11:21;12.82;;;10.93;;
36391;SDS011;22639;42.690;23.356;2022-10-20T07:13:50;12.45;;;10.80;;
36391;SDS011;22639;42.690;23.356;2022-10-20T07:16:17;12.40;;;10.05;;
36391;SDS011;22639;42.690;23.356;2022-10-20T07:18:43;11.30;;;10.10;;
36391;SDS011;22639;42.690;23.356;2022-10-20T07:21:10;12.27;;;10.25;;
36391;SDS011;22639;42.690;23.356;2022-10-20T07:23:35;13.80;;;10.30;;
36391;SDS011;22639;42.690;23.356;2022-10-20T07:28:29;12.40;;;10.18;;
36391;SDS011;22639;42.690;23.356;2022-10-20T07:30:55;13.38;;;10.68;;
36391;SDS011;22639;42.690;23.356;2022-10-20T07:33:20;14.27;;;10.65;;
36391;SDS011;22639;42.690;23.356;2022-10-20T07:35:46;15.98;;;10.30;;
36391;SDS011;22639;42.690;23.356;2022-10-20T07:38:12;12.25;;;10.18;;
36391;SDS011;22639;42.690;23.356;2022-10-20T07:40:37;11.90;;;9.57;;
36391;SDS011;22639;42.690;23.356;2022-10-20T07:43:02;10.38;;;8.70;;
36391;SDS011;22639;42.690;23.356;2022-10-20T07:45:27;10.20;;;9.10;;
36391;SDS011;22639;42.690;23.356;2022-10-20T07:47:53;12.13;;;9.90;;
36391;SDS011;22639;42.690;23.356;2022-10-20T07:50:18;12.10;;;10.90;;
36391;SDS011;22639;42.690;23.356;2022-10-20T07:52:43;12.10;;;10.25;;
36391;SDS011;22639;42.690;23.356;2022-10-20T07:55:09;13.35;;;10.85;;
36391;SDS011;22639;42.690;23.356;2022-10-20T07:57:34;11.77;;;10.00;;
36391;SDS011;22639;42.690;23.356;2022-10-20T07:59:59;15.07;;;10.90;;
36391;SDS011;22639;42.690;23.356;2022-10-20T08:02:25;11.60;;;10.40;;
36391;SDS011;22639;42.690;23.356;2022-10-20T08:04:50;10.52;;;9.52;;
36391;SDS011;22639;42.690;23.356;2022-10-20T08:07:15;14.23;;;9.38;;
36391;SDS011;22639;42.690;23.356;2022-10-20T08:09:40;11.30;;;8.88;;
36391;SDS011;22639;42.690;23.356;2022-10-20T08:12:06;10.13;;;8.77;;
36391;SDS011;22639;42.690;23.356;2022-10-20T08:14:31;10.02;;;8.02;;
36391;SDS011;22639;42.690;23.356;2022-10-20T08:17:00;11.23;;;9.48;;
36391;SDS011;22639;42.690;23.356;2022-10-20T08:19:25;9.73;;;8.73;;
36391;SDS011;22639;42.690;23.356;2022-10-20T08:21:51;11.30;;;8.18;;
36391;SDS011;22639;42.690;23.356;2022-10-20T08:24:16;9.55;;;8.63;;
36391;SDS011;22639;42.690;23.356;2022-10-20T08:26:41;8.68;;;7.88;;
36391;SDS011;22639;42.690;23.356;2022-10-20T08:29:07;11.23;;;8.73;;
36391;SDS011;22639;42.690;23.356;2022-10-20T08:31:32;10.82;;;9.00;;
36391;SDS011;22639;42.690;23.356;2022-10-20T08:33:58;10.38;;;8.35;;
36391;SDS011;22639;42.690;23.356;2022-10-20T08:36:23;11.65;;;8.30;;
36391;SDS011;22639;42.690;23.356;2022-10-20T08:38:49;14.55;;;8.90;;
36391;SDS011;22639;42.690;23.356;2022-10-20T08:41:18;11.20;;;7.15;;
36391;SDS011;22639;42.690;23.356;2022-10-20T08:43:44;9.82;;;7.75;;
36391;SDS011;22639;42.690;23.356;2022-10-20T08:46:13;8.18;;;7.30;;
36391;SDS011;22639;42.690;23.356;2022-10-20T08:48:39;8.10;;;5.72;;
36391;SDS011;22639;42.690;23.356;2022-10-20T08:51:04;10.02;;;6.65;;
36391;SDS011;22639;42.690;23.356;2022-10-20T08:53:31;8.68;;;5.97;;
36391;SDS011;22639;42.690;23.356;2022-10-20T08:55:59;6.80;;;6.13;;
36391;SDS011;22639;42.690;23.356;2022-10-20T08:58:24;8.30;;;7.10;;
36391;SDS011;22639;42.690;23.356;2022-10-20T09:00:54;7.05;;;6.07;;
36391;SDS011;22639;42.690;23.356;2022-10-20T09:03:37;8.15;;;6.45;;
36391;SDS011;22639;42.690;23.356;2022-10-20T09:06:07;8.40;;;6.07;;
36391;SDS011;22639;42.690;23.356;2022-10-20T09:08:33;6.75;;;5.85;;
36391;SDS011;22639;42.690;23.356;2022-10-20T09:11:01;6.28;;;5.55;;
36391;SDS011;22639;42.690;23.356;2022-10-20T09:13:28;9.48;;;6.18;;
36391;SDS011;22639;42.690;23.356;2022-10-20T09:15:58;6.95;;;4.82;;
36391;SDS011;22639;42.690;23.356;2022-10-20T09:18:24;5.93;;;5.25;;
36391;SDS011;22639;42.690;23.356;2022-10-20T09:20:51;5.97;;;4.50;;
36391;SDS011;22639;42.690;23.356;2022-10-20T09:23:18;14.52;;;6.20;;
36391;SDS011;22639;42.690;23.356;2022-10-20T09:25:44;8.85;;;5.13;;
36391;SDS011;22639;42.690;23.356;2022-10-20T09:28:19;10.65;;;6.03;;
36391;SDS011;22639;42.690;23.356;2022-10-20T09:30:45;9.32;;;5.05;;
36391;SDS011;22639;42.690;23.356;2022-10-20T09:33:18;5.40;;;4.88;;
36391;SDS011;22639;42.690;23.356;2022-10-20T09:35:44;11.18;;;6.07;;
36391;SDS011;22639;42.690;23.356;2022-10-20T09:38:15;4.75;;;4.10;;
36391;SDS011;22639;42.690;23.356;2022-10-20T09:40:52;5.60;;;4.47;;
36391;SDS011;22639;42.690;23.356;2022-10-20T09:43:18;3.97;;;3.60;;
36391;SDS011;22639;42.690;23.356;2022-10-20T09:45:57;4.22;;;3.80;;
36391;SDS011;22639;42.690;23.356;2022-10-20T09:50:50;7.60;;;4.47;;
36391;SDS011;22639;42.690;23.356;2022-10-20T09:53:17;4.35;;;3.95;;
36391;SDS011;22639;42.690;23.356;2022-10-20T09:55:46;6.75;;;4.43;;
36391;SDS011;22639;42.690;23.356;2022-10-20T09:58:14;4.78;;;3.85;;
36391;SDS011;22639;42.690;23.356;2022-10-20T10:00:45;5.03;;;3.97;;
36391;SDS011;22639;42.690;23.356;2022-10-20T10:03:16;3.60;;;3.30;;
36391;SDS011;22639;42.690;23.356;2022-10-20T10:05:49;5.05;;;4.00;;
36391;SDS011;22639;42.690;23.356;2022-10-20T10:08:17;4.45;;;3.80;;
36391;SDS011;22639;42.690;23.356;2022-10-20T10:10:43;3.33;;;3.03;;
36391;SDS011;22639;42.690;23.356;2022-10-20T10:13:31;4.95;;;3.50;;
36391;SDS011;22639;42.690;23.356;2022-10-20T10:16:28;4.32;;;3.90;;
36391;SDS011;22639;42.690;23.356;2022-10-20T10:18:53;3.88;;;3.45;;
36391;SDS011;22639;42.690;23.356;2022-10-20T10:21:19;7.45;;;3.90;;
36391;SDS011;22639;42.690;23.356;2022-10-20T10:23:49;5.40;;;3.78;;
36391;SDS011;22639;42.690;23.356;2022-10-20T10:28:58;3.72;;;3.40;;
36391;SDS011;22639;42.690;23.356;2022-10-20T10:31:24;3.50;;;3.20;;
36391;SDS011;22639;42.690;23.356;2022-10-20T10:33:51;6.03;;;3.72;;
36391;SDS011;22639;42.690;23.356;2022-10-20T10:36:24;5.32;;;4.68;;
36391;SDS011;22639;42.690;23.356;2022-10-20T10:38:50;5.55;;;4.00;;
36391;SDS011;22639;42.690;23.356;2022-10-20T10:41:59;5.72;;;4.40;;
36391;SDS011;22639;42.690;23.356;2022-10-20T10:46:41;4.35;;;3.95;;
36391;SDS011;22639;42.690;23.356;2022-10-20T10:56:50;4.38;;;3.47;;
36391;SDS011;22639;42.690;23.356;2022-10-20T10:59:29;3.95;;;3.65;;
36391;SDS011;22639;42.690;23.356;2022-10-20T11:09:37;5.45;;;3.70;;
36391;SDS011;22639;42.690;23.356;2022-10-20T11:12:15;4.78;;;3.17;;
36391;SDS011;22639;42.690;23.356;2022-10-20T11:24:51;8.50;;;4.43;;
36391;SDS011;22639;42.690;23.356;2022-10-20T11:27:24;4.28;;;3.67;;
36391;SDS011;22639;42.690;23.356;2022-10-20T11:30:33;5.57;;;3.80;;
36391;SDS011;22639;42.690;23.356;2022-10-20T11:35:18;3.78;;;3.35;;
36391;SDS011;22639;42.690;23.356;2022-10-20T11:40:23;4.38;;;3.85;;
36391;SDS011;22639;42.690;23.356;2022-10-20T11:42:56;4.07;;;3.55;;
36391;SDS011;22639;42.690;23.356;2022-10-20T11:47:48;3.85;;;3.47;;
36391;SDS011;22639;42.690;23.356;2022-10-20T11:50:14;4.30;;;3.40;;
36391;SDS011;22639;42.690;23.356;2022-10-20T11:52:47;4.13;;;3.58;;
36391;SDS011;22639;42.690;23.356;2022-10-20T11:57:44;4.53;;;3.90;;
36391;SDS011;22639;42.690;23.356;2022-10-20T12:05:22;5.25;;;4.28;;
36391;SDS011;22639;42.690;23.356;2022-10-20T12:07:58;4.30;;;3.90;;
36391;SDS011;22639;42.690;23.356;2022-10-20T12:10:34;4.35;;;3.95;;
36391;SDS011;22639;42.690;23.356;2022-10-20T12:15:28;3.97;;;3.58;;
36391;SDS011;22639;42.690;23.356;2022-10-20T12:17:56;4.05;;;3.70;;
36391;SDS011;22639;42.690;23.356;2022-10-20T12:22:48;3.55;;;3.22;;
36391;SDS011;22639;42.690;23.356;2022-10-20T12:25:35;5.65;;;4.15;;
36391;SDS011;22639;42.690;23.356;2022-10-20T12:30:57;6.07;;;4.25;;
36391;SDS011;22639;42.690;23.356;2022-10-20T12:33:33;4.28;;;3.85;;
36391;SDS011;22639;42.690;23.356;2022-10-20T12:36:11;5.68;;;4.63;;
36391;SDS011;22639;42.690;23.356;2022-10-20T12:38:37;5.20;;;4.22;;
36391;SDS011;22639;42.690;23.356;2022-10-20T12:41:03;9.35;;;5.20;;
36391;SDS011;22639;42.690;23.356;2022-10-20T12:43:36;4.13;;;3.72;;
36391;SDS011;22639;42.690;23.356;2022-10-20T12:46:09;3.92;;;3.53;;
36391;SDS011;22639;42.690;23.356;2022-10-20T12:48:38;4.40;;;3.85;;
36391;SDS011;22639;42.690;23.356;2022-10-20T12:51:06;6.20;;;4.07;;
36391;SDS011;22639;42.690;23.356;2022-10-20T12:53:32;6.95;;;3.63;;
36391;SDS011;22639;42.690;23.356;2022-10-20T12:55:59;6.93;;;4.32;;
36391;SDS011;22639;42.690;23.356;2022-10-20T12:58:30;4.43;;;4.03;;
36391;SDS011;22639;42.690;23.356;2022-10-20T13:14:21;4.30;;;3.63;;
36391;SDS011;22639;42.690;23.356;2022-10-20T13:16:57;3.88;;;3.55;;
36391;SDS011;22639;42.690;23.356;2022-10-20T13:19:25;6.30;;;4.63;;
36391;SDS011;22639;42.690;23.356;2022-10-20T13:21:54;4.13;;;3.70;;
36391;SDS011;22639;42.690;23.356;2022-10-20T13:24:22;5.30;;;4.18;;
36391;SDS011;22639;42.690;23.356;2022-10-20T13:26:52;4.60;;;3.95;;
36391;SDS011;22639;42.690;23.356;2022-10-20T13:34:15;6.32;;;3.58;;
36391;SDS011;22639;42.690;23.356;2022-10-20T13:50:09;4.22;;;3.83;;
36391;SDS011;22639;42.690;23.356;2022-10-20T13:52:43;4.60;;;3.90;;
36391;SDS011;22639;42.690;23.356;2022-10-20T13:55:14;5.57;;;3.30;;
36391;SDS011;22639;42.690;23.356;2022-10-20T13:57:46;4.50;;;3.58;;
36391;SDS011;22639;42.690;23.356;2022-10-20T14:00:18;3.47;;;3.17;;
36391;SDS011;22639;42.690;23.356;2022-10-20T14:05:20;3.95;;;3.60;;
36391;SDS011;22639;42.690;23.356;2022-10-20T14:07:46;3.83;;;2.72;;
36391;SDS011;22639;42.690;23.356;2022-10-20T14:12:51;5.13;;;3.65;;
36391;SDS011;22639;42.690;23.356;2022-10-20T14:15:25;4.45;;;3.55;;
36391;SDS011;22639;42.690;23.356;2022-10-20T14:18:16;4.15;;;3.45;;
36391;SDS011;22639;42.690;23.356;2022-10-20T14:20:52;5.78;;;4.18;;
36391;SDS011;22639;42.690;23.356;2022-10-20T14:23:17;3.83;;;3.08;;
36391;SDS011;22639;42.690;23.356;2022-10-20T14:25:42;3.38;;;2.92;;
36391;SDS011;22639;42.690;23.356;2022-10-20T14:28:10;5.55;;;3.25;;
36391;SDS011;22639;42.690;23.356;2022-10-20T14:30:42;3.58;;;3.17;;
36391;SDS011;22639;42.690;23.356;2022-10-20T14:33:11;5.00;;;3.78;;
36391;SDS011;22639;42.690;23.356;2022-10-20T14:35:38;4.00;;;3.40;;
36391;SDS011;22639;42.690;23.356;2022-10-20T14:38:05;3.38;;;2.80;;
36391;SDS011;22639;42.690;23.356;2022-10-20T14:40:36;2.72;;;2.53;;
36391;SDS011;22639;42.690;23.356;2022-10-20T14:43:03;3.67;;;3.25;;
36391;SDS011;22639;42.690;23.356;2022-10-20T14:45:30;6.15;;;2.55;;
36391;SDS011;22639;42.690;23.356;2022-10-20T14:47:55;4.82;;;3.45;;
36391;SDS011;22639;42.690;23.356;2022-10-20T14:50:23;4.55;;;3.50;;
36391;SDS011;22639;42.690;23.356;2022-10-20T14:52:49;3.60;;;2.67;;
36391;SDS011;22639;42.690;23.356;2022-10-20T14:57:52;3.92;;;3.53;;
36391;SDS011;22639;42.690;23.356;2022-10-20T15:00:34;5.78;;;3.40;;
36391;SDS011;22639;42.690;23.356;2022-10-20T15:03:00;4.57;;;3.60;;
36391;SDS011;22639;42.690;23.356;2022-10-20T15:08:23;3.58;;;3.10;;
36391;SDS011;22639;42.690;23.356;2022-10-20T15:10:45;3.83;;;3.42;;
36391;SDS011;22639;42.690;23.356;2022-10-20T15:13:24;10.25;;;3.95;;
36391;SDS011;22639;42.690;23.356;2022-10-20T15:15:51;4.38;;;3.30;;
36391;SDS011;22639;42.690;23.356;2022-10-20T15:18:17;8.68;;;3.80;;
36391;SDS011;22639;42.690;23.356;2022-10-20T15:20:44;4.03;;;3.17;;
36391;SDS011;22639;42.690;23.356;2022-10-20T15:25:39;4.15;;;3.53;;
36391;SDS011;22639;42.690;23.356;2022-10-20T15:28:05;3.92;;;3.40;;
36391;SDS011;22639;42.690;23.356;2022-10-20T15:30:37;6.82;;;3.75;;
36391;SDS011;22639;42.690;23.356;2022-10-20T15:33:02;4.57;;;3.83;;
36391;SDS011;22639;42.690;23.356;2022-10-20T15:35:28;8.57;;;3.85;;
36391;SDS011;22639;42.690;23.356;2022-10-20T15:37:55;5.32;;;4.13;;
36391;SDS011;22639;42.690;23.356;2022-10-20T15:40:20;8.35;;;4.05;;
36391;SDS011;22639;42.690;23.356;2022-10-20T15:42:46;7.50;;;3.63;;
36391;SDS011;22639;42.690;23.356;2022-10-20T15:45:13;5.50;;;3.45;;
36391;SDS011;22639;42.690;23.356;2022-10-20T15:47:39;4.18;;;3.72;;
36391;SDS011;22639;42.690;23.356;2022-10-20T15:50:05;6.60;;;4.50;;
36391;SDS011;22639;42.690;23.356;2022-10-20T15:52:30;6.90;;;4.40;;
36391;SDS011;22639;42.690;23.356;2022-10-20T15:54:56;5.10;;;3.95;;
36391;SDS011;22639;42.690;23.356;2022-10-20T15:57:22;4.97;;;3.95;;
36391;SDS011;22639;42.690;23.356;2022-10-20T15:59:47;7.30;;;3.95;;
36391;SDS011;22639;42.690;23.356;2022-10-20T16:02:12;5.68;;;4.45;;
36391;SDS011;22639;42.690;23.356;2022-10-20T16:04:38;4.35;;;3.78;;
36391;SDS011;22639;42.690;23.356;2022-10-20T16:07:03;5.00;;;3.78;;
36391;SDS011;22639;42.690;23.356;2022-10-20T16:09:29;4.10;;;3.63;;
36391;SDS011;22639;42.690;23.356;2022-10-20T16:11:54;8.27;;;3.58;;
36391;SDS011;22639;42.690;23.356;2022-10-20T16:14:19;5.65;;;4.03;;
36391;SDS011;22639;42.690;23.356;2022-10-20T16:16:45;7.45;;;4.47;;
36391;SDS011;22639;42.690;23.356;2022-10-20T16:19:10;4.68;;;4.05;;
36391;SDS011;22639;42.690;23.356;2022-10-20T16:21:36;5.68;;;3.95;;
36391;SDS011;22639;42.690;23.356;2022-10-20T16:24:01;5.28;;;4.00;;
36391;SDS011;22639;42.690;23.356;2022-10-20T16:26:26;5.57;;;3.60;;
36391;SDS011;22639;42.690;23.356;2022-10-20T16:28:52;7.93;;;3.60;;
36391;SDS011;22639;42.690;23.356;2022-10-20T16:31:17;8.27;;;3.95;;
36391;SDS011;22639;42.690;23.356;2022-10-20T16:33:43;5.28;;;4.07;;